Time,TemperatureF,DewpointF,PressureIn,WindDirection,WindDirectionDegrees,WindSpeedMPH,WindSpeedGustMPH,Humidity,HourlyPrecipIn,Conditions,Clouds,dailyrainin,SoftwareType,DateUTC
2013-01-18 00:04:00,44.0,-99.9,30.19,NW,316,19.0,25.0,-999,-99.99,,,-99.99,,2013-01-18 05:04:00,
2013-01-18 00:12:00,44.0,-99.9,30.19,NW,306,15.0,24.0,-999,-99.99,,,-99.99,,2013-01-18 05:12:00,
2013-01-18 00:22:00,44.0,-99.9,30.19,NW,311,14.0,24.0,-999,-99.99,,,-99.99,,2013-01-18 05:22:00,
2013-01-18 00:33:00,44.0,-99.9,30.20,WNW,303,17.0,20.0,-999,-99.99,,,-99.99,,2013-01-18 05:33:00,
2013-01-18 00:43:00,44.0,-99.9,30.21,NW,317,14.0,17.0,-999,-99.99,,,-99.99,,2013-01-18 05:43:00,
2013-01-18 00:53:00,44.0,-99.9,30.21,NW,315,14.0,19.0,-999,-99.99,,,-99.99,,2013-01-18 05:53:00,
2013-01-18 01:03:00,44.0,-99.9,30.21,NW,315,16.0,20.0,-999,-99.99,,,-99.99,,2013-01-18 06:03:00,
2013-01-18 01:12:00,43.0,-99.9,30.22,NW,316,18.0,22.0,-999,-99.99,,,-99.99,,2013-01-18 06:12:00,
2013-01-18 01:23:00,43.0,-99.9,30.22,NW,326,16.0,23.0,-999,-99.99,,,-99.99,,2013-01-18 06:23:00,
2013-01-18 01:33:00,43.0,-99.9,30.23,NW,318,15.0,20.0,-999,-99.99,,,-99.99,,2013-01-18 06:33:00,
2013-01-18 01:43:00,43.0,-99.9,30.23,NNW,327,15.0,19.0,-999,-99.99,,,-99.99,,2013-01-18 06:43:00,
2013-01-18 01:53:00,43.0,-99.9,30.24,NW,321,13.0,18.0,-999,-99.99,,,-99.99,,2013-01-18 06:53:00,
2013-01-18 02:02:00,43.0,-99.9,30.24,NW,320,15.0,19.0,-999,-99.99,,,-99.99,,2013-01-18 07:02:00,
2013-01-18 02:12:00,43.0,-99.9,30.24,NNW,327,15.0,21.0,-999,-99.99,,,-99.99,,2013-01-18 07:12:00,
2013-01-18 02:22:00,43.0,-99.9,30.24,NW,319,13.0,20.0,-999,-99.99,,,-99.99,,2013-01-18 07:22:00,
2013-01-18 02:33:00,43.0,-99.9,30.24,NW,314,13.0,16.0,-999,-99.99,,,-99.99,,2013-01-18 07:33:00,
2013-01-18 02:43:00,43.0,-99.9,30.24,NW,320,12.0,15.0,-999,-99.99,,,-99.99,,2013-01-18 07:43:00,
2013-01-18 02:52:00,43.0,-99.9,30.24,NW,304,9.0,16.0,-999,-99.99,,,-99.99,,2013-01-18 07:52:00,
2013-01-18 03:02:00,43.0,-99.9,30.25,NW,322,11.0,15.0,-999,-99.99,,,-99.99,,2013-01-18 08:02:00,
2013-01-18 03:12:00,43.0,-99.9,30.25,NW,325,11.0,15.0,-999,-99.99,,,-99.99,,2013-01-18 08:12:00,
2013-01-18 03:22:00,43.0,-99.9,30.25,NW,324,10.0,13.0,-999,-99.99,,,-99.99,,2013-01-18 08:22:00,
2013-01-18 03:33:00,43.0,-99.9,30.25,NNW,327,10.0,13.0,-999,-99.99,,,-99.99,,2013-01-18 08:33:00,
2013-01-18 03:43:00,43.0,-99.9,30.25,NNW,327,11.0,15.0,-999,-99.99,,,-99.99,,2013-01-18 08:43:00,
2013-01-18 03:53:00,43.0,-99.9,30.25,NNW,336,10.0,13.0,-999,-99.99,,,-99.99,,2013-01-18 08:53:00,
2013-01-18 04:03:00,43.0,-99.9,30.26,NNW,342,11.0,13.0,-999,-99.99,,,-99.99,,2013-01-18 09:03:00,
2013-01-18 04:12:00,43.0,-99.9,30.26,NNW,342,12.0,16.0,-999,-99.99,,,-99.99,,2013-01-18 09:12:00,
2013-01-18 04:22:00,44.0,-99.9,30.26,NNW,339,10.0,15.0,-999,-99.99,,,-99.99,,2013-01-18 09:22:00,
2013-01-18 04:33:00,44.0,-99.9,30.26,NNW,342,10.0,13.0,-999,-99.99,,,-99.99,,2013-01-18 09:33:00,
2013-01-18 04:43:00,44.0,-99.9,30.27,North,349,11.0,15.0,-999,-99.99,,,-99.99,,2013-01-18 09:43:00,
2013-01-18 04:53:00,44.0,-99.9,30.27,North,350,11.0,15.0,-999,-99.99,,,-99.99,,2013-01-18 09:53:00,
2013-01-18 05:03:00,44.0,-99.9,30.27,North,358,7.0,15.0,-999,-99.99,,,-99.99,,2013-01-18 10:03:00,
2013-01-18 05:12:00,45.0,-99.9,30.27,North,352,11.0,16.0,-999,-99.99,,,-99.99,,2013-01-18 10:12:00,
2013-01-18 05:22:00,45.0,-99.9,30.28,North,-999,12.0,17.0,-999,-99.99,,,-99.99,,2013-01-18 10:22:00,
2013-01-18 05:33:00,45.0,-99.9,30.28,North,-999,14.0,18.0,-999,-99.99,,,-99.99,,2013-01-18 10:33:00,
2013-01-18 05:43:00,46.0,-99.9,30.28,North,360,13.0,20.0,-999,-99.99,,,-99.99,,2013-01-18 10:43:00,
2013-01-18 05:53:00,46.0,-99.9,30.28,North,359,11.0,20.0,-999,-99.99,,,-99.99,,2013-01-18 10:53:00,
2013-01-18 06:03:00,46.0,-99.9,30.29,North,358,12.0,17.0,-999,-99.99,,,-99.99,,2013-01-18 11:03:00,
2013-01-18 06:12:00,46.0,-99.9,30.29,North,356,11.0,16.0,-999,-99.99,,,-99.99,,2013-01-18 11:12:00,
2013-01-18 06:23:00,46.0,-99.9,30.29,North,355,12.0,15.0,-999,-99.99,,,-99.99,,2013-01-18 11:23:00,
2013-01-18 06:33:00,46.0,-99.9,30.30,North,355,12.0,16.0,-999,-99.99,,,-99.99,,2013-01-18 11:33:00,
2013-01-18 06:43:00,46.0,-99.9,30.30,North,354,11.0,14.0,-999,-99.99,,,-99.99,,2013-01-18 11:43:00,
2013-01-18 06:53:00,46.0,-99.9,30.31,North,356,11.0,15.0,-999,-99.99,,,-99.99,,2013-01-18 11:53:00,
2013-01-18 07:03:00,46.0,-99.9,30.32,North,355,13.0,16.0,-999,-99.99,,,-99.99,,2013-01-18 12:03:00,
2013-01-18 07:12:00,47.0,-99.9,30.32,North,359,10.0,15.0,-999,-99.99,,,-99.99,,2013-01-18 12:12:00,
2013-01-18 07:23:00,47.0,-99.9,30.33,North,360,9.0,13.0,-999,-99.99,,,-99.99,,2013-01-18 12:23:00,
2013-01-18 07:33:00,47.0,-99.9,30.33,North,9,9.0,13.0,-999,-99.99,,,-99.99,,2013-01-18 12:33:00,
2013-01-18 07:43:00,53.0,-99.9,30.33,NE,34,30.0,35.0,-999,-99.99,,,-99.99,,2013-01-18 12:43:00,
2013-01-18 07:53:00,53.0,-99.9,30.33,NNE,33,28.0,34.0,-999,-99.99,,,-99.99,,2013-01-18 12:53:00,
2013-01-18 08:03:00,53.0,-99.9,30.34,NE,34,30.0,37.0,-999,-99.99,,,-99.99,,2013-01-18 13:03:00,
2013-01-18 08:12:00,53.0,-99.9,30.35,NE,37,29.0,35.0,-999,-99.99,,,-99.99,,2013-01-18 13:12:00,
2013-01-18 08:23:00,53.0,-99.9,30.35,NE,38,26.0,34.0,-999,-99.99,,,-99.99,,2013-01-18 13:23:00,
2013-01-18 08:34:00,53.0,-99.9,30.36,NE,42,29.0,37.0,-999,-99.99,,,-99.99,,2013-01-18 13:34:00,
2013-01-18 08:43:00,53.0,-99.9,30.36,NE,42,30.0,36.0,-999,-99.99,,,-99.99,,2013-01-18 13:43:00,
2013-01-18 08:53:00,53.0,-99.9,30.37,NE,41,28.0,32.0,-999,-99.99,,,-99.99,,2013-01-18 13:53:00,
2013-01-18 09:03:00,53.0,-99.9,30.38,NE,36,29.0,36.0,-999,-99.99,,,-99.99,,2013-01-18 14:03:00,
2013-01-18 09:13:00,54.0,-99.9,30.38,NE,46,27.0,34.0,-999,-99.99,,,-99.99,,2013-01-18 14:13:00,
2013-01-18 09:23:00,54.0,-99.9,30.39,NE,40,28.0,36.0,-999,-99.99,,,-99.99,,2013-01-18 14:23:00,
2013-01-18 09:34:00,53.0,-99.9,30.40,NE,44,26.0,34.0,-999,-99.99,,,-99.99,,2013-01-18 14:34:00,
2013-01-18 09:43:00,54.0,-99.9,30.40,NE,44,26.0,37.0,-999,-99.99,,,-99.99,,2013-01-18 14:43:00,
2013-01-18 09:53:00,54.0,-99.9,30.41,NE,46,24.0,35.0,-999,-99.99,,,-99.99,,2013-01-18 14:53:00,
2013-01-18 10:03:00,54.0,-99.9,30.41,NE,45,27.0,33.0,-999,-99.99,,,-99.99,,2013-01-18 15:03:00,
2013-01-18 10:13:00,54.0,-99.9,30.42,NE,45,28.0,34.0,-999,-99.99,,,-99.99,,2013-01-18 15:13:00,
2013-01-18 10:23:00,53.0,-99.9,30.42,NE,41,27.0,32.0,-999,-99.99,,,-99.99,,2013-01-18 15:23:00,
2013-01-18 10:34:00,54.0,-99.9,30.42,NE,44,26.0,34.0,-999,-99.99,,,-99.99,,2013-01-18 15:34:00,
2013-01-18 10:44:00,54.0,-99.9,30.43,NE,42,25.0,29.0,-999,-99.99,,,-99.99,,2013-01-18 15:44:00,
2013-01-18 10:54:00,54.0,-99.9,30.43,NE,45,27.0,30.0,-999,-99.99,,,-99.99,,2013-01-18 15:54:00,
2013-01-18 11:03:00,54.0,-99.9,30.44,NE,45,27.0,32.0,-999,-99.99,,,-99.99,,2013-01-18 16:03:00,
2013-01-18 11:13:00,54.0,-99.9,30.44,NE,40,27.0,33.0,-999,-99.99,,,-99.99,,2013-01-18 16:13:00,
2013-01-18 11:23:00,54.0,-99.9,30.44,NE,44,26.0,32.0,-999,-99.99,,,-99.99,,2013-01-18 16:23:00,
2013-01-18 11:33:00,54.0,-99.9,30.44,NE,42,27.0,30.0,-999,-99.99,,,-99.99,,2013-01-18 16:33:00,
2013-01-18 11:43:00,54.0,-99.9,30.44,NE,42,26.0,32.0,-999,-99.99,,,-99.99,,2013-01-18 16:43:00,
2013-01-18 11:53:00,54.0,-99.9,30.43,NE,42,29.0,35.0,-999,-99.99,,,-99.99,,2013-01-18 16:53:00,
2013-01-18 12:03:00,54.0,-99.9,30.43,NE,37,25.0,30.0,-999,-99.99,,,-99.99,,2013-01-18 17:03:00,
2013-01-18 12:13:00,54.0,-99.9,30.43,NE,41,27.0,31.0,-999,-99.99,,,-99.99,,2013-01-18 17:13:00,
2013-01-18 12:23:00,54.0,-99.9,30.43,NE,43,26.0,31.0,-999,-99.99,,,-99.99,,2013-01-18 17:23:00,
2013-01-18 12:34:00,54.0,-99.9,30.43,NE,39,26.0,30.0,-999,-99.99,,,-99.99,,2013-01-18 17:34:00,
2013-01-18 12:43:00,54.0,-99.9,30.43,NNE,32,26.0,31.0,-999,-99.99,,,-99.99,,2013-01-18 17:43:00,
2013-01-18 12:53:00,54.0,-99.9,30.42,NE,36,24.0,31.0,-999,-99.99,,,-99.99,,2013-01-18 17:53:00,
2013-01-18 13:03:00,54.0,-99.9,30.42,NE,38,25.0,33.0,-999,-99.99,,,-99.99,,2013-01-18 18:03:00,
2013-01-18 13:13:00,54.0,-99.9,30.42,NNE,31,25.0,32.0,-999,-99.99,,,-99.99,,2013-01-18 18:13:00,
2013-01-18 13:24:00,54.0,-99.9,30.42,NNE,29,26.0,31.0,-999,-99.99,,,-99.99,,2013-01-18 18:24:00,
2013-01-18 13:34:00,53.0,-99.9,30.42,NNE,26,26.0,31.0,-999,-99.99,,,-99.99,,2013-01-18 18:34:00,
2013-01-18 13:44:00,54.0,-99.9,30.42,NNE,29,27.0,31.0,-999,-99.99,,,-99.99,,2013-01-18 18:44:00,
2013-01-18 13:53:00,54.0,-99.9,30.42,NE,37,25.0,31.0,-999,-99.99,,,-99.99,,2013-01-18 18:53:00,
2013-01-18 14:03:00,54.0,-99.9,30.42,NE,34,25.0,31.0,-999,-99.99,,,-99.99,,2013-01-18 19:03:00,
2013-01-18 14:13:00,54.0,-99.9,30.42,NNE,33,26.0,30.0,-999,-99.99,,,-99.99,,2013-01-18 19:13:00,
2013-01-18 14:23:00,54.0,-99.9,30.42,NNE,25,26.0,31.0,-999,-99.99,,,-99.99,,2013-01-18 19:23:00,
2013-01-18 14:33:00,54.0,-99.9,30.42,NE,42,27.0,32.0,-999,-99.99,,,-99.99,,2013-01-18 19:33:00,
2013-01-18 14:43:00,54.0,-99.9,30.42,NNE,27,23.0,33.0,-999,-99.99,,,-99.99,,2013-01-18 19:43:00,
2013-01-18 14:53:00,54.0,-99.9,30.42,NE,35,24.0,29.0,-999,-99.99,,,-99.99,,2013-01-18 19:53:00,
2013-01-18 15:03:00,54.0,-99.9,30.42,NNE,26,24.0,32.0,-999,-99.99,,,-99.99,,2013-01-18 20:03:00,
2013-01-18 15:13:00,54.0,-99.9,30.42,NNE,28,23.0,31.0,-999,-99.99,,,-99.99,,2013-01-18 20:13:00,
2013-01-18 15:23:00,54.0,-99.9,30.42,NE,35,25.0,30.0,-999,-99.99,,,-99.99,,2013-01-18 20:23:00,
2013-01-18 15:33:00,54.0,-99.9,30.42,NNE,28,22.0,30.0,-999,-99.99,,,-99.99,,2013-01-18 20:33:00,
2013-01-18 15:43:00,54.0,-99.9,30.42,NNE,28,27.0,32.0,-999,-99.99,,,-99.99,,2013-01-18 20:43:00,
2013-01-18 15:53:00,54.0,-99.9,30.42,NNE,33,23.0,33.0,-999,-99.99,,,-99.99,,2013-01-18 20:53:00,
2013-01-18 16:03:00,54.0,-99.9,30.42,NNE,31,28.0,35.0,-999,-99.99,,,-99.99,,2013-01-18 21:03:00,
2013-01-18 16:13:00,55.0,-99.9,30.42,NE,36,24.0,33.0,-999,-99.99,,,-99.99,,2013-01-18 21:13:00,
2013-01-18 16:23:00,54.0,-99.9,30.42,NNE,32,25.0,32.0,-999,-99.99,,,-99.99,,2013-01-18 21:23:00,
2013-01-18 16:33:00,55.0,-99.9,30.43,NNE,31,23.0,29.0,-999,-99.99,,,-99.99,,2013-01-18 21:33:00,
2013-01-18 16:43:00,55.0,-99.9,30.43,NNE,32,24.0,31.0,-999,-99.99,,,-99.99,,2013-01-18 21:43:00,
2013-01-18 16:53:00,55.0,-99.9,30.43,NE,37,26.0,31.0,-999,-99.99,,,-99.99,,2013-01-18 21:53:00,
2013-01-18 17:03:00,55.0,-99.9,30.44,NNE,32,25.0,30.0,-999,-99.99,,,-99.99,,2013-01-18 22:03:00,
2013-01-18 17:12:00,55.0,-99.9,30.44,NNE,31,25.0,29.0,-999,-99.99,,,-99.99,,2013-01-18 22:12:00,
2013-01-18 17:23:00,55.0,-99.9,30.44,NE,35,23.0,31.0,-999,-99.99,,,-99.99,,2013-01-18 22:23:00,
2013-01-18 17:33:00,55.0,-99.9,30.44,NNE,31,22.0,26.0,-999,-99.99,,,-99.99,,2013-01-18 22:33:00,
2013-01-18 17:43:00,55.0,-99.9,30.44,NNE,31,22.0,26.0,-999,-99.99,,,-99.99,,2013-01-18 22:43:00,
2013-01-18 17:53:00,55.0,-99.9,30.45,NE,37,24.0,31.0,-999,-99.99,,,-99.99,,2013-01-18 22:53:00,
2013-01-18 18:03:00,55.0,-99.9,30.45,NE,35,26.0,31.0,-999,-99.99,,,-99.99,,2013-01-18 23:03:00,
2013-01-18 18:12:00,54.0,-99.9,30.45,NE,36,25.0,30.0,-999,-99.99,,,-99.99,,2013-01-18 23:12:00,
2013-01-18 18:23:00,54.0,-99.9,30.45,NE,34,24.0,27.0,-999,-99.99,,,-99.99,,2013-01-18 23:23:00,
2013-01-18 18:33:00,54.0,-99.9,30.45,NE,36,23.0,28.0,-999,-99.99,,,-99.99,,2013-01-18 23:33:00,
2013-01-18 18:43:00,54.0,-99.9,30.45,NE,35,22.0,29.0,-999,-99.99,,,-99.99,,2013-01-18 23:43:00,
2013-01-18 18:53:00,54.0,-99.9,30.45,NE,34,23.0,28.0,-999,-99.99,,,-99.99,,2013-01-18 23:53:00,
2013-01-18 19:03:00,54.0,-99.9,30.45,NE,40,25.0,29.0,-999,-99.99,,,-99.99,,2013-01-19 00:03:00,
2013-01-18 19:13:00,55.0,-99.9,30.46,NE,41,21.0,28.0,-999,-99.99,,,-99.99,,2013-01-19 00:13:00,
2013-01-18 19:23:00,55.0,-99.9,30.46,NE,41,24.0,30.0,-999,-99.99,,,-99.99,,2013-01-19 00:23:00,
2013-01-18 19:33:00,55.0,-99.9,30.46,NE,38,24.0,28.0,-999,-99.99,,,-99.99,,2013-01-19 00:33:00,
2013-01-18 19:43:00,55.0,-99.9,30.46,NE,39,24.0,31.0,-999,-99.99,,,-99.99,,2013-01-19 00:43:00,
2013-01-18 19:53:00,55.0,-99.9,30.46,NE,41,25.0,29.0,-999,-99.99,,,-99.99,,2013-01-19 00:53:00,
2013-01-18 20:03:00,55.0,-99.9,30.46,NE,42,26.0,30.0,-999,-99.99,,,-99.99,,2013-01-19 01:03:00,
2013-01-18 20:13:00,55.0,-99.9,30.46,NE,38,23.0,27.0,-999,-99.99,,,-99.99,,2013-01-19 01:13:00,
2013-01-18 20:23:00,55.0,-99.9,30.45,NE,43,24.0,29.0,-999,-99.99,,,-99.99,,2013-01-19 01:23:00,
2013-01-18 20:33:00,55.0,-99.9,30.45,NE,37,22.0,29.0,-999,-99.99,,,-99.99,,2013-01-19 01:33:00,
2013-01-18 20:43:00,55.0,-99.9,30.45,NE,42,27.0,30.0,-999,-99.99,,,-99.99,,2013-01-19 01:43:00,
2013-01-18 20:53:00,55.0,-99.9,30.45,NE,43,23.0,30.0,-999,-99.99,,,-99.99,,2013-01-19 01:53:00,
2013-01-18 21:03:00,55.0,-99.9,30.45,NE,36,23.0,29.0,-999,-99.99,,,-99.99,,2013-01-19 02:03:00,
2013-01-18 21:12:00,55.0,-99.9,30.45,NE,38,26.0,32.0,-999,-99.99,,,-99.99,,2013-01-19 02:12:00,
2013-01-18 21:23:00,55.0,-99.9,30.45,NE,34,24.0,30.0,-999,-99.99,,,-99.99,,2013-01-19 02:23:00,
2013-01-18 21:33:00,55.0,-99.9,30.45,NE,37,22.0,29.0,-999,-99.99,,,-99.99,,2013-01-19 02:33:00,
2013-01-18 21:43:00,56.0,-99.9,30.45,NE,37,26.0,32.0,-999,-99.99,,,-99.99,,2013-01-19 02:43:00,
2013-01-18 21:53:00,56.0,-99.9,30.45,NE,39,24.0,29.0,-999,-99.99,,,-99.99,,2013-01-19 02:53:00,
2013-01-18 22:03:00,56.0,-99.9,30.45,NNE,33,23.0,29.0,-999,-99.99,,,-99.99,,2013-01-19 03:03:00,
2013-01-18 22:12:00,56.0,-99.9,30.45,NE,34,25.0,30.0,-999,-99.99,,,-99.99,,2013-01-19 03:12:00,
2013-01-18 22:23:00,56.0,-99.9,30.45,NE,35,21.0,26.0,-999,-99.99,,,-99.99,,2013-01-19 03:23:00,
2013-01-18 22:33:00,56.0,-99.9,30.45,NE,35,21.0,26.0,-999,-99.99,,,-99.99,,2013-01-19 03:33:00,
2013-01-18 22:44:00,56.0,-99.9,30.44,NNE,32,22.0,28.0,-999,-99.99,,,-99.99,,2013-01-19 03:44:00,
2013-01-18 22:53:00,56.0,-99.9,30.43,NNE,31,23.0,28.0,-999,-99.99,,,-99.99,,2013-01-19 03:53:00,
2013-01-18 23:03:00,56.0,-99.9,30.43,NNE,31,21.0,26.0,-999,-99.99,,,-99.99,,2013-01-19 04:03:00,
2013-01-18 23:12:00,56.0,-99.9,30.43,NNE,32,21.0,26.0,-999,-99.99,,,-99.99,,2013-01-19 04:12:00,
2013-01-18 23:22:00,56.0,-99.9,30.42,NNE,29,22.0,26.0,-999,-99.99,,,-99.99,,2013-01-19 04:22:00,
2013-01-18 23:33:00,56.0,-99.9,30.42,NNE,30,21.0,26.0,-999,-99.99,,,-99.99,,2013-01-19 04:33:00,
2013-01-18 23:43:00,56.0,-99.9,30.42,NNE,31,19.0,28.0,-999,-99.99,,,-99.99,,2013-01-19 04:43:00,
2013-01-18 23:53:00,56.0,-99.9,30.41,NNE,33,18.0,28.0,-999,-99.99,,,-99.99,,2013-01-19 04:53:00,